Terminal Aerodrome Forecast
Issued by NWS New Orleans/Baton Rouge, LA

Home | Current Version | Previous Version | Text Only | Print | Product List | Glossary On
Versions: 1 2 3 4 5 6 7 8 9 10 11 12 13
168
FTUS44 KLIX 261120
TAFBTR
TAF
KBTR 261120Z 2612/2712 00000KT P6SM SCT014
     FM261500 10005KT P6SM VCTS SCT025CB BKN060
     FM270300 18004KT P6SM BKN035=

USA.gov is the U.S. government's official web portal to all federal, state and local government web resources and services.